MV Moseldijk — PBWK — position and weather

sailwx.info

Track history (hours):
 
Tides and Currents Weather Stations Pressure Air Temp Water Temp Dewpoint Dewpoint Depression Visibility Wind Speed Wind Dir Waves Ship Positions

MV Moseldijk

Last reported at 2014-Sep-29 17:16 UTC. Time now 2014-Sep-30 14:04 UTC.
Position N 35°55' W 005°16'.

Length 90 m; draft 6.4 m.

Type: Cargo ship. MMSI: 246644000.

Date/timePositionNaut miles runAvg speedWind from/ knotsBaromVisibWave heightAir tempDewpointWater temp
2014-Sep-29 17:16N 35°55' W 005°16'2 3.1
2014-Sep-29 16:33N 35°54' W 005°18'0 0.0
2014-Sep-29 15:33N 35°54' W 005°18'0 0.0
2014-Sep-29 14:33N 35°54' W 005°18'0 0.0
2014-Sep-29 13:33N 35°54' W 005°18'0 0.0
2014-Sep-29 12:33N 35°54' W 005°18'1 0.9
2014-Sep-29 11:33N 35°54' W 005°19'1 1.2
2014-Sep-29 10:33N 35°55' W 005°20'  
2014-Sep-24 09:33N 50°36' E 000°21'8 8.1
2014-Sep-24 08:33N 50°39' E 000°34'9 9.0
2014-Sep-24 07:33N 50°44' E 000°45'3511.6
2014-Sep-24 04:32N 51°06' E 001°29'1010.3
2014-Sep-24 03:34N 51°12' E 001°41'9 9.1
2014-Sep-24 02:33N 51°19' E 001°51'9 8.6
2014-Sep-24 01:33N 51°26' E 001°60'9 8.5
2014-Sep-24 00:33N 51°32' E 002°08'9 9.0
2014-Sep-23 23:32N 51°39' E 002°18'8310.4
2014-Sep-23 15:32N 52°31' E 004°04'10 9.7
2014-Sep-23 14:33N 52°30' E 004°20'9 9.1
2014-Sep-23 13:34N 52°28' E 004°34'1 1.2
2014-Sep-23 12:26N 52°28' E 004°36'0 0.0
2014-Sep-23 11:32N 52°28' E 004°36'0 0.0
2014-Sep-23 10:32N 52°28' E 004°36'0 0.0
2014-Sep-23 09:29N 52°28' E 004°36'0 0.0
2014-Sep-23 08:32N 52°28' E 004°36'0 0.0
2014-Sep-23 07:32N 52°28' E 004°36'0 0.0
2014-Sep-23 06:32N 52°28' E 004°36'0 0.0
2014-Sep-23 05:32N 52°28' E 004°36'0 0.0
2014-Sep-23 04:32N 52°28' E 004°36'0 0.0
2014-Sep-23 03:32N 52°28' E 004°36'0 0.0
2014-Sep-23 02:32N 52°28' E 004°36'0 0.0
2014-Sep-23 01:32N 52°28' E 004°36'0 0.0
2014-Sep-23 00:32N 52°28' E 004°36'0 0.0
2014-Sep-22 23:32N 52°28' E 004°36'0 0.0
2014-Sep-22 22:32N 52°28' E 004°36'0 0.0
2014-Sep-22 21:32N 52°28' E 004°36'0 0.0
2014-Sep-22 20:32N 52°28' E 004°36'0 0.0
2014-Sep-22 19:32N 52°28' E 004°36'0 0.0
2014-Sep-22 18:32N 52°28' E 004°36'0 0.0
2014-Sep-22 17:32N 52°28' E 004°36'0 0.0
2014-Sep-22 16:32N 52°28' E 004°36'0 0.0
2014-Sep-22 15:32N 52°28' E 004°36'0 0.0
2014-Sep-22 14:32N 52°28' E 004°36'0 0.1
2014-Sep-22 13:32N 52°28' E 004°36'0 0.0
2014-Sep-22 12:32N 52°28' E 004°36'0 0.0
2014-Sep-22 11:32N 52°28' E 004°36'0 0.0
2014-Sep-22 10:32N 52°28' E 004°36'0 0.0
2014-Sep-22 09:32N 52°28' E 004°36'0 0.0
2014-Sep-22 08:32N 52°28' E 004°36'0 0.0
2014-Sep-22 07:32N 52°28' E 004°36'0 0.0
2014-Sep-22 06:32N 52°28' E 004°36'0 0.0
2014-Sep-22 05:32N 52°28' E 004°36'0 0.0
2014-Sep-22 04:32N 52°28' E 004°36'0 0.0
2014-Sep-22 03:32N 52°28' E 004°36'0 0.0
2014-Sep-22 02:32N 52°28' E 004°36'0 0.0
2014-Sep-22 01:32N 52°28' E 004°36'0 0.0
2014-Sep-22 00:32N 52°28' E 004°36'0 0.0
2014-Sep-21 23:32N 52°28' E 004°36'0 0.0
2014-Sep-21 22:32N 52°28' E 004°36'0 0.0
2014-Sep-21 21:32N 52°28' E 004°36'0 0.0
2014-Sep-21 20:32N 52°28' E 004°36'0 0.0
2014-Sep-21 19:32N 52°28' E 004°36'0 0.0
2014-Sep-21 18:29N 52°28' E 004°36'0 0.0
2014-Sep-21 17:32N 52°28' E 004°36'0 0.0
2014-Sep-21 16:32N 52°28' E 004°36'0 0.0
2014-Sep-21 15:32N 52°28' E 004°36'0 0.0
2014-Sep-21 14:32N 52°28' E 004°36'0 0.0
2014-Sep-21 13:32N 52°28' E 004°36'0 0.0
2014-Sep-21 12:32N 52°28' E 004°36'0 0.0
2014-Sep-21 11:32N 52°28' E 004°36'0 0.0
2014-Sep-21 10:32N 52°28' E 004°36'0 0.0
2014-Sep-21 09:32N 52°28' E 004°36'0 0.0
2014-Sep-21 08:32N 52°28' E 004°36'0 0.0
2014-Sep-21 07:32N 52°28' E 004°36'0 0.0
2014-Sep-21 06:31N 52°28' E 004°36'0 0.0
2014-Sep-21 05:32N 52°28' E 004°36'0 0.0
2014-Sep-21 04:31N 52°28' E 004°36'0 0.0
2014-Sep-21 03:31N 52°28' E 004°36'0 0.0
2014-Sep-21 02:31N 52°28' E 004°36'0 0.0
2014-Sep-21 01:31N 52°28' E 004°36'0 0.0
2014-Sep-21 00:32N 52°28' E 004°36'0 0.0
2014-Sep-20 23:31N 52°28' E 004°36'0 0.0
2014-Sep-20 22:31N 52°28' E 004°36'0 0.0
2014-Sep-20 21:31N 52°28' E 004°36'0 0.0
2014-Sep-20 20:31N 52°28' E 004°36'0 0.0
2014-Sep-20 19:31N 52°28' E 004°36'0 0.0
2014-Sep-20 18:31N 52°28' E 004°36'0 0.0
2014-Sep-20 17:31N 52°28' E 004°36'0 0.0
2014-Sep-20 16:31N 52°28' E 004°36'0 0.0
2014-Sep-20 15:31N 52°28' E 004°36'0 0.0
2014-Sep-20 14:31N 52°28' E 004°36'0 0.0
2014-Sep-20 13:31N 52°28' E 004°36'0 0.0
2014-Sep-20 12:31N 52°28' E 004°36'0 0.0
2014-Sep-20 11:31N 52°28' E 004°36'0 0.0
2014-Sep-20 10:31N 52°28' E 004°36'168168.3
2014-Sep-20 09:31N 52°28' E 000°00'168168.4
2014-Sep-20 08:31N 52°28' E 004°36'0 0.0
2014-Sep-20 07:31N 52°28' E 004°36'0 0.0
2014-Sep-20 06:31N 52°28' E 004°36'0 0.0
2014-Sep-20 05:31N 52°28' E 004°36'0 0.0
2014-Sep-20 04:31N 52°28' E 004°36'0 0.0
2014-Sep-20 03:31N 52°28' E 004°36'0 0.0
2014-Sep-20 02:31N 52°28' E 004°36'0 0.0
2014-Sep-20 01:31N 52°28' E 004°36'0 0.0
2014-Sep-20 00:31N 52°28' E 004°36'0 0.0
2014-Sep-19 23:31N 52°28' E 004°36'0 0.0
2014-Sep-19 22:31N 52°28' E 004°36'0 0.0
2014-Sep-19 21:31N 52°28' E 004°36'0 0.0
2014-Sep-19 20:31N 52°28' E 004°36'0 0.0
2014-Sep-19 19:31N 52°28' E 004°36'0 0.0
2014-Sep-19 18:31N 52°28' E 004°36'0 0.0
2014-Sep-19 17:31N 52°28' E 004°36'  
Track history (hours):
 
Tides and Currents Weather Stations Pressure Air Temp Water Temp Dewpoint Dewpoint Depression Visibility Wind Speed Wind Dir Waves Ship Positions

MV Moseldijk

Last reported at 2014-Sep-29 17:16 UTC. Time now 2014-Sep-30 14:04 UTC.
Position N 35°55' W 005°16'.

Length 90 m; draft 6.4 m.

Type: Cargo ship. MMSI: 246644000.

Date/timePositionNaut miles runAvg speedWind from/ knotsBaromVisibWave heightAir tempDewpointWater temp
2014-Sep-29 17:16N 35°55' W 005°16'2 3.1
2014-Sep-29 16:33N 35°54' W 005°18'0 0.0
2014-Sep-29 15:33N 35°54' W 005°18'0 0.0
2014-Sep-29 14:33N 35°54' W 005°18'0 0.0
2014-Sep-29 13:33N 35°54' W 005°18'0 0.0
2014-Sep-29 12:33N 35°54' W 005°18'1 0.9
2014-Sep-29 11:33N 35°54' W 005°19'1 1.2
2014-Sep-29 10:33N 35°55' W 005°20'  
2014-Sep-24 09:33N 50°36' E 000°21'8 8.1
2014-Sep-24 08:33N 50°39' E 000°34'9 9.0
2014-Sep-24 07:33N 50°44' E 000°45'3511.6
2014-Sep-24 04:32N 51°06' E 001°29'1010.3
2014-Sep-24 03:34N 51°12' E 001°41'9 9.1
2014-Sep-24 02:33N 51°19' E 001°51'9 8.6
2014-Sep-24 01:33N 51°26' E 001°60'9 8.5
2014-Sep-24 00:33N 51°32' E 002°08'9 9.0
2014-Sep-23 23:32N 51°39' E 002°18'8310.4
2014-Sep-23 15:32N 52°31' E 004°04'10 9.7
2014-Sep-23 14:33N 52°30' E 004°20'9 9.1
2014-Sep-23 13:34N 52°28' E 004°34'1 1.2
2014-Sep-23 12:26N 52°28' E 004°36'0 0.0
2014-Sep-23 11:32N 52°28' E 004°36'0 0.0
2014-Sep-23 10:32N 52°28' E 004°36'0 0.0
2014-Sep-23 09:29N 52°28' E 004°36'0 0.0
2014-Sep-23 08:32N 52°28' E 004°36'0 0.0
2014-Sep-23 07:32N 52°28' E 004°36'0 0.0
2014-Sep-23 06:32N 52°28' E 004°36'0 0.0
2014-Sep-23 05:32N 52°28' E 004°36'0 0.0
2014-Sep-23 04:32N 52°28' E 004°36'0 0.0
2014-Sep-23 03:32N 52°28' E 004°36'0 0.0
2014-Sep-23 02:32N 52°28' E 004°36'0 0.0
2014-Sep-23 01:32N 52°28' E 004°36'0 0.0
2014-Sep-23 00:32N 52°28' E 004°36'0 0.0
2014-Sep-22 23:32N 52°28' E 004°36'0 0.0
2014-Sep-22 22:32N 52°28' E 004°36'0 0.0
2014-Sep-22 21:32N 52°28' E 004°36'0 0.0
2014-Sep-22 20:32N 52°28' E 004°36'0 0.0
2014-Sep-22 19:32N 52°28' E 004°36'0 0.0
2014-Sep-22 18:32N 52°28' E 004°36'0 0.0
2014-Sep-22 17:32N 52°28' E 004°36'0 0.0
2014-Sep-22 16:32N 52°28' E 004°36'0 0.0
2014-Sep-22 15:32N 52°28' E 004°36'0 0.0
2014-Sep-22 14:32N 52°28' E 004°36'0 0.1
2014-Sep-22 13:32N 52°28' E 004°36'0 0.0
2014-Sep-22 12:32N 52°28' E 004°36'0 0.0
2014-Sep-22 11:32N 52°28' E 004°36'0 0.0
2014-Sep-22 10:32N 52°28' E 004°36'0 0.0
2014-Sep-22 09:32N 52°28' E 004°36'0 0.0
2014-Sep-22 08:32N 52°28' E 004°36'0 0.0
2014-Sep-22 07:32N 52°28' E 004°36'0 0.0
2014-Sep-22 06:32N 52°28' E 004°36'0 0.0
2014-Sep-22 05:32N 52°28' E 004°36'0 0.0
2014-Sep-22 04:32N 52°28' E 004°36'0 0.0
2014-Sep-22 03:32N 52°28' E 004°36'0 0.0
2014-Sep-22 02:32N 52°28' E 004°36'0 0.0
2014-Sep-22 01:32N 52°28' E 004°36'0 0.0
2014-Sep-22 00:32N 52°28' E 004°36'0 0.0
2014-Sep-21 23:32N 52°28' E 004°36'0 0.0
2014-Sep-21 22:32N 52°28' E 004°36'0 0.0
2014-Sep-21 21:32N 52°28' E 004°36'0 0.0
2014-Sep-21 20:32N 52°28' E 004°36'0 0.0
2014-Sep-21 19:32N 52°28' E 004°36'0 0.0
2014-Sep-21 18:29N 52°28' E 004°36'0 0.0
2014-Sep-21 17:32N 52°28' E 004°36'0 0.0
2014-Sep-21 16:32N 52°28' E 004°36'0 0.0
2014-Sep-21 15:32N 52°28' E 004°36'0 0.0
2014-Sep-21 14:32N 52°28' E 004°36'0 0.0
2014-Sep-21 13:32N 52°28' E 004°36'0 0.0
2014-Sep-21 12:32N 52°28' E 004°36'0 0.0
2014-Sep-21 11:32N 52°28' E 004°36'0 0.0
2014-Sep-21 10:32N 52°28' E 004°36'0 0.0
2014-Sep-21 09:32N 52°28' E 004°36'0 0.0
2014-Sep-21 08:32N 52°28' E 004°36'0 0.0
2014-Sep-21 07:32N 52°28' E 004°36'0 0.0
2014-Sep-21 06:31N 52°28' E 004°36'0 0.0
2014-Sep-21 05:32N 52°28' E 004°36'0 0.0
2014-Sep-21 04:31N 52°28' E 004°36'0 0.0
2014-Sep-21 03:31N 52°28' E 004°36'0 0.0
2014-Sep-21 02:31N 52°28' E 004°36'0 0.0
2014-Sep-21 01:31N 52°28' E 004°36'0 0.0
2014-Sep-21 00:32N 52°28' E 004°36'0 0.0
2014-Sep-20 23:31N 52°28' E 004°36'0 0.0
2014-Sep-20 22:31N 52°28' E 004°36'0 0.0
2014-Sep-20 21:31N 52°28' E 004°36'0 0.0
2014-Sep-20 20:31N 52°28' E 004°36'0 0.0
2014-Sep-20 19:31N 52°28' E 004°36'0 0.0
2014-Sep-20 18:31N 52°28' E 004°36'0 0.0
2014-Sep-20 17:31N 52°28' E 004°36'0 0.0
2014-Sep-20 16:31N 52°28' E 004°36'0 0.0
2014-Sep-20 15:31N 52°28' E 004°36'0 0.0
2014-Sep-20 14:31N 52°28' E 004°36'0 0.0
2014-Sep-20 13:31N 52°28' E 004°36'0 0.0
2014-Sep-20 12:31N 52°28' E 004°36'0 0.0
2014-Sep-20 11:31N 52°28' E 004°36'0 0.0
2014-Sep-20 10:31N 52°28' E 004°36'168168.3
2014-Sep-20 09:31N 52°28' E 000°00'168168.4
2014-Sep-20 08:31N 52°28' E 004°36'0 0.0
2014-Sep-20 07:31N 52°28' E 004°36'0 0.0
2014-Sep-20 06:31N 52°28' E 004°36'0 0.0
2014-Sep-20 05:31N 52°28' E 004°36'0 0.0
2014-Sep-20 04:31N 52°28' E 004°36'0 0.0
2014-Sep-20 03:31N 52°28' E 004°36'0 0.0
2014-Sep-20 02:31N 52°28' E 004°36'0 0.0
2014-Sep-20 01:31N 52°28' E 004°36'0 0.0
2014-Sep-20 00:31N 52°28' E 004°36'0 0.0
2014-Sep-19 23:31N 52°28' E 004°36'0 0.0
2014-Sep-19 22:31N 52°28' E 004°36'0 0.0
2014-Sep-19 21:31N 52°28' E 004°36'0 0.0
2014-Sep-19 20:31N 52°28' E 004°36'0 0.0
2014-Sep-19 19:31N 52°28' E 004°36'0 0.0
2014-Sep-19 18:31N 52°28' E 004°36'0 0.0
2014-Sep-19 17:31N 52°28' E 004°36'  

Dump ship's entire track history